sensor_id;sensor_type;location;lat;lon;timestamp;P1;durP1;ratioP1;P2;durP2;ratioP2
25359;SDS011;13311;51.386;0.016;2023-06-24T00:04:36;6.90;;;4.30;;
25359;SDS011;13311;51.386;0.016;2023-06-24T00:09:37;5.65;;;4.28;;
25359;SDS011;13311;51.386;0.016;2023-06-24T00:14:38;9.85;;;4.38;;
25359;SDS011;13311;51.386;0.016;2023-06-24T00:19:39;5.03;;;4.25;;
25359;SDS011;13311;51.386;0.016;2023-06-24T00:24:39;5.88;;;3.88;;
25359;SDS011;13311;51.386;0.016;2023-06-24T00:29:42;7.40;;;4.28;;
25359;SDS011;13311;51.386;0.016;2023-06-24T00:34:43;4.60;;;4.20;;
25359;SDS011;13311;51.386;0.016;2023-06-24T00:39:44;6.63;;;4.57;;
25359;SDS011;13311;51.386;0.016;2023-06-24T00:44:44;6.32;;;4.35;;
25359;SDS011;13311;51.386;0.016;2023-06-24T00:49:45;5.65;;;4.57;;
25359;SDS011;13311;51.386;0.016;2023-06-24T00:54:46;5.70;;;3.90;;
25359;SDS011;13311;51.386;0.016;2023-06-24T00:59:47;7.30;;;4.30;;
25359;SDS011;13311;51.386;0.016;2023-06-24T01:04:48;5.47;;;4.32;;
25359;SDS011;13311;51.386;0.016;2023-06-24T01:09:51;5.78;;;4.13;;
25359;SDS011;13311;51.386;0.016;2023-06-24T01:14:52;5.45;;;4.15;;
25359;SDS011;13311;51.386;0.016;2023-06-24T01:30:41;7.25;;;4.25;;
25359;SDS011;13311;51.386;0.016;2023-06-24T01:35:54;6.00;;;4.57;;
25359;SDS011;13311;51.386;0.016;2023-06-24T01:40:55;6.45;;;4.38;;
25359;SDS011;13311;51.386;0.016;2023-06-24T01:45:57;6.22;;;4.90;;
25359;SDS011;13311;51.386;0.016;2023-06-24T01:50:59;6.05;;;5.00;;
25359;SDS011;13311;51.386;0.016;2023-06-24T01:56:04;4.85;;;4.07;;
25359;SDS011;13311;51.386;0.016;2023-06-24T02:01:07;6.68;;;4.53;;
25359;SDS011;13311;51.386;0.016;2023-06-24T02:06:08;8.93;;;5.20;;
25359;SDS011;13311;51.386;0.016;2023-06-24T02:11:09;5.93;;;5.30;;
25359;SDS011;13311;51.386;0.016;2023-06-24T02:16:12;6.35;;;5.25;;
25359;SDS011;13311;51.386;0.016;2023-06-24T02:21:15;10.52;;;5.70;;
25359;SDS011;13311;51.386;0.016;2023-06-24T02:26:18;5.78;;;4.95;;
25359;SDS011;13311;51.386;0.016;2023-06-24T02:31:19;7.18;;;5.25;;
25359;SDS011;13311;51.386;0.016;2023-06-24T02:36:20;6.70;;;5.50;;
25359;SDS011;13311;51.386;0.016;2023-06-24T02:41:22;5.88;;;5.28;;
25359;SDS011;13311;51.386;0.016;2023-06-24T02:46:23;10.75;;;5.82;;
25359;SDS011;13311;51.386;0.016;2023-06-24T02:51:29;6.95;;;5.50;;
25359;SDS011;13311;51.386;0.016;2023-06-24T02:56:30;7.88;;;5.78;;
25359;SDS011;13311;51.386;0.016;2023-06-24T03:01:32;7.85;;;5.20;;
25359;SDS011;13311;51.386;0.016;2023-06-24T03:06:38;9.18;;;6.03;;
25359;SDS011;13311;51.386;0.016;2023-06-24T03:11:41;7.53;;;5.35;;
25359;SDS011;13311;51.386;0.016;2023-06-24T03:16:43;8.10;;;5.57;;
25359;SDS011;13311;51.386;0.016;2023-06-24T03:21:43;9.25;;;6.07;;
25359;SDS011;13311;51.386;0.016;2023-06-24T03:26:44;8.85;;;6.70;;
25359;SDS011;13311;51.386;0.016;2023-06-24T03:31:45;8.45;;;6.22;;
25359;SDS011;13311;51.386;0.016;2023-06-24T03:36:46;15.48;;;6.63;;
25359;SDS011;13311;51.386;0.016;2023-06-24T03:41:47;7.57;;;5.63;;
25359;SDS011;13311;51.386;0.016;2023-06-24T03:46:47;10.75;;;7.00;;
25359;SDS011;13311;51.386;0.016;2023-06-24T03:51:48;10.90;;;7.57;;
25359;SDS011;13311;51.386;0.016;2023-06-24T03:56:49;14.02;;;9.15;;
25359;SDS011;13311;51.386;0.016;2023-06-24T04:01:49;11.68;;;8.77;;
25359;SDS011;13311;51.386;0.016;2023-06-24T04:06:51;11.35;;;9.57;;
25359;SDS011;13311;51.386;0.016;2023-06-24T04:11:52;14.98;;;10.93;;
25359;SDS011;13311;51.386;0.016;2023-06-24T04:16:52;14.88;;;10.82;;
25359;SDS011;13311;51.386;0.016;2023-06-24T04:21:53;15.45;;;10.57;;
25359;SDS011;13311;51.386;0.016;2023-06-24T04:26:54;18.55;;;11.63;;
25359;SDS011;13311;51.386;0.016;2023-06-24T04:31:55;19.73;;;12.55;;
25359;SDS011;13311;51.386;0.016;2023-06-24T04:36:56;18.05;;;11.82;;
25359;SDS011;13311;51.386;0.016;2023-06-24T04:41:56;20.10;;;12.52;;
25359;SDS011;13311;51.386;0.016;2023-06-24T04:46:57;16.00;;;11.75;;
25359;SDS011;13311;51.386;0.016;2023-06-24T04:52:01;16.58;;;12.65;;
25359;SDS011;13311;51.386;0.016;2023-06-24T04:57:05;18.20;;;13.13;;
25359;SDS011;13311;51.386;0.016;2023-06-24T05:02:08;14.70;;;11.88;;
25359;SDS011;13311;51.386;0.016;2023-06-24T05:07:09;16.00;;;12.23;;
25359;SDS011;13311;51.386;0.016;2023-06-24T05:12:10;13.52;;;11.50;;
25359;SDS011;13311;51.386;0.016;2023-06-24T05:17:10;13.35;;;9.85;;
25359;SDS011;13311;51.386;0.016;2023-06-24T05:22:11;12.38;;;9.60;;
25359;SDS011;13311;51.386;0.016;2023-06-24T05:27:12;10.55;;;9.38;;
25359;SDS011;13311;51.386;0.016;2023-06-24T05:32:13;10.25;;;8.63;;
25359;SDS011;13311;51.386;0.016;2023-06-24T05:37:14;9.52;;;8.30;;
25359;SDS011;13311;51.386;0.016;2023-06-24T05:42:14;6.32;;;5.75;;
25359;SDS011;13311;51.386;0.016;2023-06-24T05:47:15;8.75;;;6.35;;
25359;SDS011;13311;51.386;0.016;2023-06-24T05:52:16;9.00;;;5.50;;
25359;SDS011;13311;51.386;0.016;2023-06-24T05:57:17;5.97;;;5.38;;
25359;SDS011;13311;51.386;0.016;2023-06-24T06:02:17;7.10;;;5.63;;
25359;SDS011;13311;51.386;0.016;2023-06-24T06:07:18;5.80;;;5.20;;
25359;SDS011;13311;51.386;0.016;2023-06-24T06:12:19;5.22;;;4.45;;
25359;SDS011;13311;51.386;0.016;2023-06-24T06:17:19;6.05;;;4.72;;
25359;SDS011;13311;51.386;0.016;2023-06-24T06:22:20;5.07;;;4.57;;
25359;SDS011;13311;51.386;0.016;2023-06-24T06:27:21;4.70;;;4.22;;
25359;SDS011;13311;51.386;0.016;2023-06-24T06:32:21;6.20;;;4.30;;
25359;SDS011;13311;51.386;0.016;2023-06-24T06:37:22;5.65;;;3.72;;
25359;SDS011;13311;51.386;0.016;2023-06-24T06:42:23;6.05;;;3.30;;
25359;SDS011;13311;51.386;0.016;2023-06-24T06:47:23;4.15;;;3.53;;
25359;SDS011;13311;51.386;0.016;2023-06-24T06:52:24;13.82;;;4.65;;
25359;SDS011;13311;51.386;0.016;2023-06-24T06:57:25;4.18;;;3.15;;
25359;SDS011;13311;51.386;0.016;2023-06-24T07:02:25;3.58;;;3.28;;
25359;SDS011;13311;51.386;0.016;2023-06-24T07:07:26;3.15;;;2.92;;
25359;SDS011;13311;51.386;0.016;2023-06-24T07:12:27;3.03;;;2.72;;
25359;SDS011;13311;51.386;0.016;2023-06-24T07:17:27;3.33;;;2.45;;
25359;SDS011;13311;51.386;0.016;2023-06-24T07:22:28;3.05;;;2.75;;
25359;SDS011;13311;51.386;0.016;2023-06-24T07:27:30;5.90;;;3.42;;
25359;SDS011;13311;51.386;0.016;2023-06-24T07:32:31;3.67;;;3.38;;
25359;SDS011;13311;51.386;0.016;2023-06-24T07:37:31;4.82;;;3.72;;
25359;SDS011;13311;51.386;0.016;2023-06-24T07:42:34;4.80;;;3.78;;
25359;SDS011;13311;51.386;0.016;2023-06-24T07:47:35;5.35;;;4.03;;
25359;SDS011;13311;51.386;0.016;2023-06-24T07:52:36;3.92;;;3.53;;
25359;SDS011;13311;51.386;0.016;2023-06-24T07:57:37;5.43;;;4.18;;
25359;SDS011;13311;51.386;0.016;2023-06-24T08:02:38;6.15;;;4.15;;
25359;SDS011;13311;51.386;0.016;2023-06-24T08:07:40;6.13;;;4.72;;
25359;SDS011;13311;51.386;0.016;2023-06-24T08:12:40;5.80;;;4.72;;
25359;SDS011;13311;51.386;0.016;2023-06-24T08:17:41;5.60;;;4.85;;
25359;SDS011;13311;51.386;0.016;2023-06-24T08:22:42;4.35;;;3.95;;
25359;SDS011;13311;51.386;0.016;2023-06-24T08:27:42;6.88;;;4.88;;
25359;SDS011;13311;51.386;0.016;2023-06-24T08:32:46;5.50;;;4.50;;
25359;SDS011;13311;51.386;0.016;2023-06-24T08:37:47;6.05;;;4.20;;
25359;SDS011;13311;51.386;0.016;2023-06-24T08:42:47;5.63;;;4.43;;
25359;SDS011;13311;51.386;0.016;2023-06-24T08:47:48;4.97;;;4.10;;
25359;SDS011;13311;51.386;0.016;2023-06-24T08:52:51;4.85;;;3.60;;
25359;SDS011;13311;51.386;0.016;2023-06-24T08:57:52;6.30;;;4.80;;
25359;SDS011;13311;51.386;0.016;2023-06-24T09:02:53;5.97;;;3.30;;
25359;SDS011;13311;51.386;0.016;2023-06-24T09:07:54;4.38;;;3.28;;
25359;SDS011;13311;51.386;0.016;2023-06-24T09:12:54;3.90;;;3.50;;
25359;SDS011;13311;51.386;0.016;2023-06-24T09:17:55;3.78;;;3.47;;
25359;SDS011;13311;51.386;0.016;2023-06-24T09:22:59;6.15;;;3.47;;
25359;SDS011;13311;51.386;0.016;2023-06-24T09:28:03;4.43;;;3.30;;
25359;SDS011;13311;51.386;0.016;2023-06-24T09:33:04;7.78;;;3.97;;
25359;SDS011;13311;51.386;0.016;2023-06-24T09:38:04;3.90;;;3.28;;
25359;SDS011;13311;51.386;0.016;2023-06-24T09:43:05;4.45;;;3.22;;
25359;SDS011;13311;51.386;0.016;2023-06-24T09:48:06;3.53;;;2.90;;
25359;SDS011;13311;51.386;0.016;2023-06-24T09:53:07;3.10;;;2.80;;
25359;SDS011;13311;51.386;0.016;2023-06-24T09:58:07;3.15;;;2.80;;
25359;SDS011;13311;51.386;0.016;2023-06-24T10:03:11;4.28;;;3.05;;
25359;SDS011;13311;51.386;0.016;2023-06-24T10:08:13;3.47;;;2.30;;
25359;SDS011;13311;51.386;0.016;2023-06-24T10:13:14;4.10;;;2.78;;
25359;SDS011;13311;51.386;0.016;2023-06-24T10:23:32;3.35;;;2.55;;
25359;SDS011;13311;51.386;0.016;2023-06-24T10:29:23;4.05;;;2.47;;
25359;SDS011;13311;51.386;0.016;2023-06-24T10:40:08;3.45;;;2.47;;
25359;SDS011;13311;51.386;0.016;2023-06-24T10:45:21;2.90;;;2.60;;
25359;SDS011;13311;51.386;0.016;2023-06-24T10:50:22;2.22;;;2.03;;
25359;SDS011;13311;51.386;0.016;2023-06-24T10:55:24;2.85;;;2.30;;
25359;SDS011;13311;51.386;0.016;2023-06-24T11:00:28;2.50;;;2.30;;
25359;SDS011;13311;51.386;0.016;2023-06-24T11:05:30;5.40;;;2.13;;
25359;SDS011;13311;51.386;0.016;2023-06-24T11:10:31;2.55;;;2.17;;
25359;SDS011;13311;51.386;0.016;2023-06-24T11:15:32;2.65;;;2.22;;
25359;SDS011;13311;51.386;0.016;2023-06-24T11:20:33;2.15;;;1.80;;
25359;SDS011;13311;51.386;0.016;2023-06-24T11:25:42;3.20;;;1.75;;
25359;SDS011;13311;51.386;0.016;2023-06-24T11:30:43;3.53;;;2.10;;
25359;SDS011;13311;51.386;0.016;2023-06-24T11:35:44;2.83;;;1.77;;
25359;SDS011;13311;51.386;0.016;2023-06-24T11:40:46;2.00;;;1.80;;
25359;SDS011;13311;51.386;0.016;2023-06-24T11:45:48;3.20;;;2.10;;
25359;SDS011;13311;51.386;0.016;2023-06-24T11:50:53;2.97;;;2.58;;
25359;SDS011;13311;51.386;0.016;2023-06-24T11:55:57;3.53;;;2.88;;
25359;SDS011;13311;51.386;0.016;2023-06-24T12:00:57;3.30;;;2.08;;
25359;SDS011;13311;51.386;0.016;2023-06-24T12:05:58;2.78;;;1.95;;
25359;SDS011;13311;51.386;0.016;2023-06-24T12:11:00;2.20;;;2.00;;
25359;SDS011;13311;51.386;0.016;2023-06-24T12:16:00;5.28;;;2.42;;
25359;SDS011;13311;51.386;0.016;2023-06-24T12:21:01;2.33;;;2.08;;
25359;SDS011;13311;51.386;0.016;2023-06-24T12:26:02;2.92;;;2.28;;
25359;SDS011;13311;51.386;0.016;2023-06-24T12:31:03;2.40;;;2.20;;
25359;SDS011;13311;51.386;0.016;2023-06-24T12:36:03;1.88;;;1.77;;
25359;SDS011;13311;51.386;0.016;2023-06-24T12:41:04;2.45;;;2.08;;
25359;SDS011;13311;51.386;0.016;2023-06-24T12:46:05;3.22;;;2.25;;
25359;SDS011;13311;51.386;0.016;2023-06-24T12:51:06;2.63;;;2.17;;
25359;SDS011;13311;51.386;0.016;2023-06-24T12:56:06;2.03;;;1.77;;
25359;SDS011;13311;51.386;0.016;2023-06-24T13:01:08;2.80;;;1.95;;
25359;SDS011;13311;51.386;0.016;2023-06-24T13:06:09;2.28;;;1.58;;
25359;SDS011;13311;51.386;0.016;2023-06-24T13:11:10;2.38;;;1.77;;
25359;SDS011;13311;51.386;0.016;2023-06-24T13:16:10;2.35;;;2.00;;
25359;SDS011;13311;51.386;0.016;2023-06-24T13:21:11;2.17;;;1.95;;
25359;SDS011;13311;51.386;0.016;2023-06-24T13:26:12;1.65;;;1.55;;
25359;SDS011;13311;51.386;0.016;2023-06-24T13:31:13;3.95;;;2.63;;
25359;SDS011;13311;51.386;0.016;2023-06-24T13:36:28;2.03;;;1.65;;
25359;SDS011;13311;51.386;0.016;2023-06-24T13:41:35;2.65;;;2.17;;
25359;SDS011;13311;51.386;0.016;2023-06-24T13:46:35;2.20;;;1.88;;
25359;SDS011;13311;51.386;0.016;2023-06-24T13:51:36;2.20;;;2.00;;
25359;SDS011;13311;51.386;0.016;2023-06-24T13:56:37;2.97;;;2.55;;
25359;SDS011;13311;51.386;0.016;2023-06-24T14:01:38;2.65;;;1.90;;
25359;SDS011;13311;51.386;0.016;2023-06-24T14:06:39;1.70;;;1.60;;
25359;SDS011;13311;51.386;0.016;2023-06-24T14:11:40;2.20;;;1.67;;
25359;SDS011;13311;51.386;0.016;2023-06-24T14:16:40;4.10;;;2.45;;
25359;SDS011;13311;51.386;0.016;2023-06-24T14:21:41;2.95;;;2.20;;
25359;SDS011;13311;51.386;0.016;2023-06-24T14:26:42;2.42;;;2.20;;
25359;SDS011;13311;51.386;0.016;2023-06-24T14:31:43;3.30;;;2.47;;
25359;SDS011;13311;51.386;0.016;2023-06-24T14:36:44;2.55;;;2.00;;
25359;SDS011;13311;51.386;0.016;2023-06-24T14:41:45;2.00;;;1.80;;
25359;SDS011;13311;51.386;0.016;2023-06-24T14:46:45;4.65;;;1.75;;
25359;SDS011;13311;51.386;0.016;2023-06-24T14:51:46;2.00;;;1.90;;
25359;SDS011;13311;51.386;0.016;2023-06-24T14:56:47;2.47;;;1.92;;
25359;SDS011;13311;51.386;0.016;2023-06-24T15:01:48;3.40;;;1.70;;
25359;SDS011;13311;51.386;0.016;2023-06-24T15:06:48;2.20;;;2.00;;
25359;SDS011;13311;51.386;0.016;2023-06-24T15:11:49;3.88;;;2.08;;
25359;SDS011;13311;51.386;0.016;2023-06-24T15:16:50;2.10;;;1.83;;
25359;SDS011;13311;51.386;0.016;2023-06-24T15:21:52;3.20;;;2.00;;
25359;SDS011;13311;51.386;0.016;2023-06-24T15:26:53;2.22;;;1.95;;
25359;SDS011;13311;51.386;0.016;2023-06-24T15:31:57;3.72;;;2.40;;
25359;SDS011;13311;51.386;0.016;2023-06-24T15:36:58;3.35;;;2.08;;
25359;SDS011;13311;51.386;0.016;2023-06-24T15:41:59;2.47;;;1.80;;
25359;SDS011;13311;51.386;0.016;2023-06-24T15:46:59;2.28;;;1.90;;
25359;SDS011;13311;51.386;0.016;2023-06-24T15:52:00;3.28;;;2.50;;
25359;SDS011;13311;51.386;0.016;2023-06-24T15:57:01;2.80;;;2.58;;
25359;SDS011;13311;51.386;0.016;2023-06-24T16:02:02;4.32;;;3.20;;
25359;SDS011;13311;51.386;0.016;2023-06-24T16:07:03;4.80;;;2.80;;
25359;SDS011;13311;51.386;0.016;2023-06-24T16:12:04;4.15;;;3.00;;
25359;SDS011;13311;51.386;0.016;2023-06-24T16:17:05;4.85;;;3.50;;
25359;SDS011;13311;51.386;0.016;2023-06-24T16:22:06;7.80;;;4.00;;
25359;SDS011;13311;51.386;0.016;2023-06-24T16:27:07;4.35;;;3.53;;
25359;SDS011;13311;51.386;0.016;2023-06-24T16:32:07;11.18;;;4.07;;
25359;SDS011;13311;51.386;0.016;2023-06-24T16:37:08;7.00;;;4.32;;
25359;SDS011;13311;51.386;0.016;2023-06-24T16:42:09;15.60;;;3.75;;
25359;SDS011;13311;51.386;0.016;2023-06-24T16:47:10;5.63;;;3.67;;
25359;SDS011;13311;51.386;0.016;2023-06-24T16:52:10;5.82;;;4.13;;
25359;SDS011;13311;51.386;0.016;2023-06-24T16:57:11;3.78;;;2.97;;
25359;SDS011;13311;51.386;0.016;2023-06-24T17:02:12;4.70;;;3.70;;
25359;SDS011;13311;51.386;0.016;2023-06-24T17:07:13;4.70;;;3.38;;
25359;SDS011;13311;51.386;0.016;2023-06-24T17:12:13;4.50;;;3.75;;
25359;SDS011;13311;51.386;0.016;2023-06-24T17:17:14;4.60;;;3.97;;
25359;SDS011;13311;51.386;0.016;2023-06-24T17:22:15;3.55;;;2.70;;
25359;SDS011;13311;51.386;0.016;2023-06-24T17:27:15;4.45;;;3.13;;
25359;SDS011;13311;51.386;0.016;2023-06-24T17:32:16;3.40;;;3.10;;
25359;SDS011;13311;51.386;0.016;2023-06-24T17:37:17;5.60;;;3.40;;
25359;SDS011;13311;51.386;0.016;2023-06-24T17:42:18;3.47;;;3.08;;
25359;SDS011;13311;51.386;0.016;2023-06-24T17:47:19;4.35;;;3.10;;
25359;SDS011;13311;51.386;0.016;2023-06-24T17:52:20;5.00;;;3.40;;
25359;SDS011;13311;51.386;0.016;2023-06-24T17:57:21;3.63;;;3.00;;
25359;SDS011;13311;51.386;0.016;2023-06-24T18:02:22;3.53;;;3.22;;
25359;SDS011;13311;51.386;0.016;2023-06-24T18:07:22;4.20;;;3.45;;
25359;SDS011;13311;51.386;0.016;2023-06-24T18:12:23;6.47;;;4.13;;
25359;SDS011;13311;51.386;0.016;2023-06-24T18:17:24;7.75;;;5.38;;
25359;SDS011;13311;51.386;0.016;2023-06-24T18:22:25;7.28;;;6.15;;
25359;SDS011;13311;51.386;0.016;2023-06-24T18:27:25;7.70;;;4.15;;
25359;SDS011;13311;51.386;0.016;2023-06-24T18:32:26;5.63;;;3.95;;
25359;SDS011;13311;51.386;0.016;2023-06-24T18:37:27;7.78;;;3.88;;
25359;SDS011;13311;51.386;0.016;2023-06-24T18:42:30;3.80;;;3.47;;
25359;SDS011;13311;51.386;0.016;2023-06-24T18:47:31;3.53;;;3.15;;
25359;SDS011;13311;51.386;0.016;2023-06-24T18:52:31;4.47;;;3.45;;
25359;SDS011;13311;51.386;0.016;2023-06-24T18:57:32;5.15;;;4.40;;
25359;SDS011;13311;51.386;0.016;2023-06-24T19:02:33;3.75;;;2.75;;
25359;SDS011;13311;51.386;0.016;2023-06-24T19:07:33;3.53;;;2.78;;
25359;SDS011;13311;51.386;0.016;2023-06-24T19:12:34;3.78;;;2.97;;
25359;SDS011;13311;51.386;0.016;2023-06-24T19:17:35;4.72;;;2.28;;
25359;SDS011;13311;51.386;0.016;2023-06-24T19:22:35;2.97;;;2.40;;
25359;SDS011;13311;51.386;0.016;2023-06-24T19:27:36;2.50;;;2.30;;
25359;SDS011;13311;51.386;0.016;2023-06-24T19:32:38;3.00;;;2.40;;
25359;SDS011;13311;51.386;0.016;2023-06-24T19:37:39;2.33;;;2.13;;
25359;SDS011;13311;51.386;0.016;2023-06-24T19:42:42;1.95;;;1.80;;
25359;SDS011;13311;51.386;0.016;2023-06-24T19:47:42;3.95;;;2.00;;
25359;SDS011;13311;51.386;0.016;2023-06-24T19:52:43;2.55;;;1.90;;
25359;SDS011;13311;51.386;0.016;2023-06-24T19:57:44;2.25;;;2.05;;
25359;SDS011;13311;51.386;0.016;2023-06-24T20:02:45;2.05;;;1.60;;
25359;SDS011;13311;51.386;0.016;2023-06-24T20:07:46;4.22;;;2.17;;
25359;SDS011;13311;51.386;0.016;2023-06-24T20:12:46;3.17;;;2.20;;
25359;SDS011;13311;51.386;0.016;2023-06-24T20:17:47;2.47;;;2.00;;
25359;SDS011;13311;51.386;0.016;2023-06-24T20:22:48;2.53;;;1.90;;
25359;SDS011;13311;51.386;0.016;2023-06-24T20:27:48;2.63;;;2.20;;
25359;SDS011;13311;51.386;0.016;2023-06-24T20:32:49;2.92;;;1.80;;
25359;SDS011;13311;51.386;0.016;2023-06-24T20:37:50;2.03;;;1.85;;
25359;SDS011;13311;51.386;0.016;2023-06-24T20:42:51;2.72;;;2.00;;
25359;SDS011;13311;51.386;0.016;2023-06-24T20:47:51;3.67;;;2.28;;
25359;SDS011;13311;51.386;0.016;2023-06-24T20:52:52;3.60;;;2.05;;
25359;SDS011;13311;51.386;0.016;2023-06-24T20:57:53;4.78;;;1.90;;
25359;SDS011;13311;51.386;0.016;2023-06-24T21:02:54;3.15;;;2.30;;
25359;SDS011;13311;51.386;0.016;2023-06-24T21:07:54;2.65;;;1.92;;
25359;SDS011;13311;51.386;0.016;2023-06-24T21:12:55;5.35;;;2.83;;
25359;SDS011;13311;51.386;0.016;2023-06-24T21:17:56;2.60;;;2.10;;
25359;SDS011;13311;51.386;0.016;2023-06-24T21:22:57;3.58;;;2.45;;
25359;SDS011;13311;51.386;0.016;2023-06-24T21:27:59;7.05;;;2.42;;
25359;SDS011;13311;51.386;0.016;2023-06-24T21:32:59;2.15;;;1.77;;
25359;SDS011;13311;51.386;0.016;2023-06-24T21:38:00;3.20;;;2.20;;
25359;SDS011;13311;51.386;0.016;2023-06-24T21:43:01;2.90;;;1.55;;
25359;SDS011;13311;51.386;0.016;2023-06-24T21:48:01;1.95;;;1.70;;
25359;SDS011;13311;51.386;0.016;2023-06-24T21:53:03;3.38;;;2.30;;
25359;SDS011;13311;51.386;0.016;2023-06-24T21:58:04;2.95;;;2.30;;
25359;SDS011;13311;51.386;0.016;2023-06-24T22:03:05;2.22;;;2.00;;
25359;SDS011;13311;51.386;0.016;2023-06-24T22:08:06;2.88;;;1.92;;
25359;SDS011;13311;51.386;0.016;2023-06-24T22:13:06;2.47;;;1.52;;
25359;SDS011;13311;51.386;0.016;2023-06-24T22:18:07;3.60;;;1.70;;
25359;SDS011;13311;51.386;0.016;2023-06-24T22:23:08;3.22;;;1.60;;
25359;SDS011;13311;51.386;0.016;2023-06-24T22:28:08;1.88;;;1.50;;
25359;SDS011;13311;51.386;0.016;2023-06-24T22:33:09;2.92;;;1.60;;
25359;SDS011;13311;51.386;0.016;2023-06-24T22:38:10;2.65;;;1.75;;
25359;SDS011;13311;51.386;0.016;2023-06-24T22:43:10;2.33;;;1.88;;
25359;SDS011;13311;51.386;0.016;2023-06-24T22:48:11;4.10;;;1.98;;
25359;SDS011;13311;51.386;0.016;2023-06-24T22:53:12;2.53;;;1.75;;
25359;SDS011;13311;51.386;0.016;2023-06-24T22:58:15;2.33;;;1.88;;
25359;SDS011;13311;51.386;0.016;2023-06-24T23:03:15;1.65;;;1.50;;
25359;SDS011;13311;51.386;0.016;2023-06-24T23:08:16;2.40;;;1.95;;
25359;SDS011;13311;51.386;0.016;2023-06-24T23:13:17;1.80;;;1.52;;
25359;SDS011;13311;51.386;0.016;2023-06-24T23:18:18;2.55;;;1.67;;
25359;SDS011;13311;51.386;0.016;2023-06-24T23:23:19;2.55;;;1.77;;
25359;SDS011;13311;51.386;0.016;2023-06-24T23:28:20;2.00;;;1.80;;
25359;SDS011;13311;51.386;0.016;2023-06-24T23:33:23;4.38;;;1.80;;
25359;SDS011;13311;51.386;0.016;2023-06-24T23:38:24;2.65;;;1.80;;
25359;SDS011;13311;51.386;0.016;2023-06-24T23:43:25;4.97;;;2.20;;
25359;SDS011;13311;51.386;0.016;2023-06-24T23:48:27;6.57;;;2.10;;
25359;SDS011;13311;51.386;0.016;2023-06-24T23:53:28;2.90;;;2.22;;
25359;SDS011;13311;51.386;0.016;2023-06-24T23:58:29;2.50;;;1.92;;
